Time;durP1;ratioP1;P1;durP2;ratioP2;P2;SDS_P1;SDS_P2;PMS_P1;PMS_P2;Temp;Humidity;BMP_temperature;BMP_pressure;BME280_temperature;BME280_humidity;BME280_pressure;Samples;Min_cycle;Max_cycle;Signal;HPM_P1;HPM_P2
2023/09/10 00:00:49;;;;;;;10.13;4.32;;;;;;;;;;5007130;28;20072;-85
2023/09/10 00:03:16;;;;;;;6.38;3.47;;;;;;;;;;5012215;28;20129;-84
2023/09/10 00:05:42;;;;;;;7.80;4.40;;;;;;;;;;5011233;28;20026;-84
2023/09/10 00:08:08;;;;;;;5.85;3.63;;;;;;;;;;5000736;28;20046;-86
2023/09/10 00:10:34;;;;;;;7.95;3.90;;;;;;;;;;5000203;28;20030;-85
2023/09/10 00:13:00;;;;;;;7.28;3.83;;;;;;;;;;5002252;28;20440;-84
2023/09/10 00:15:25;;;;;;;7.78;4.20;;;;;;;;;;5002614;28;20591;-86
2023/09/10 00:17:52;;;;;;;9.40;4.28;;;;;;;;;;5004356;28;20049;-83
2023/09/10 00:20:18;;;;;;;9.85;4.25;;;;;;;;;;4999191;28;20626;-84
2023/09/10 00:22:44;;;;;;;6.30;3.35;;;;;;;;;;5003281;28;20393;-85
2023/09/10 00:25:10;;;;;;;8.98;4.35;;;14.90;99.90;;;;;;4998754;28;20026;-84
2023/09/10 00:27:36;;;;;;;10.40;3.28;;;;;;;;;;4999165;28;20077;-84
2023/09/10 00:30:03;;;;;;;5.90;3.25;;;;;;;;;;5009365;28;20109;-86
2023/09/10 00:32:29;;;;;;;6.35;3.33;;;;;;;;;;5003343;28;20128;-84
2023/09/10 00:34:55;;;;;;;8.48;3.25;;;;;;;;;;5008269;28;20037;-82
2023/09/10 00:37:21;;;;;;;6.75;3.90;;;;;;;;;;4998627;28;20033;-83
2023/09/10 00:39:47;;;;;;;4.40;3.08;;;;;;;;;;4999695;28;21612;-86
2023/09/10 00:42:13;;;;;;;8.35;3.88;;;14.50;99.90;;;;;;4999599;28;20018;-82
2023/09/10 00:44:40;;;;;;;10.23;4.05;;;14.80;99.90;;;;;;5001727;28;20444;-83
2023/09/10 00:47:06;;;;;;;6.00;3.50;;;;;;;;;;5002909;28;20041;-83
2023/09/10 00:49:32;;;;;;;6.25;3.60;;;;;;;;;;5006109;28;20026;-83
2023/09/10 00:52:00;;;;;;;9.10;4.20;;;15.00;99.90;;;;;;4987734;28;20092;-85
2023/09/10 00:54:26;;;;;;;9.50;4.38;;;;;;;;;;5006466;28;20467;-82
2023/09/10 00:56:53;;;;;;;7.13;3.63;;;;;;;;;;5003397;28;20038;-83
2023/09/10 00:59:19;;;;;;;8.27;3.65;;;;;;;;;;5005745;28;20040;-84
2023/09/10 01:01:45;;;;;;;5.68;3.72;;;;;;;;;;4995903;28;20037;-84
2023/09/10 01:04:11;;;;;;;8.48;4.40;;;14.80;99.90;;;;;;5003314;28;20037;-84
2023/09/10 01:06:37;;;;;;;8.25;4.20;;;;;;;;;;5001065;28;22141;-83
2023/09/10 01:09:04;;;;;;;7.10;4.45;;;;;;;;;;4999563;28;20018;-84
2023/09/10 01:11:42;;;;;;;8.52;3.67;;;14.20;99.90;;;;;;5000472;28;20081;-86
2023/09/10 01:14:29;;;;;;;7.20;3.47;;;14.80;99.90;;;;;;5006430;28;20026;-84
2023/09/10 01:17:13;;;;;;;9.93;3.50;;;14.60;99.90;;;;;;5003949;28;20025;-82
2023/09/10 01:19:50;;;;;;;;;;;14.30;99.90;;;;;;5002320;28;20045;-84
2023/09/10 01:22:30;;;;;;;10.43;3.72;;;14.90;99.90;;;;;;4994554;28;19921;-83
2023/09/10 01:24:57;;;;;;;7.88;4.07;;;14.20;99.90;;;;;;5001654;28;20136;-83
2023/09/10 01:27:23;;;;;;;9.38;4.10;;;;;;;;;;5007318;28;20034;-84
2023/09/10 01:29:49;;;;;;;7.53;3.42;;;;;;;;;;5007342;28;20030;-86
2023/09/10 01:32:23;;;;;;;7.43;4.28;;;14.40;99.90;;;;;;5010157;28;20018;-85
2023/09/10 01:34:58;;;;;;;8.35;4.20;;;14.30;99.90;;;;;;5009002;28;20065;-85
2023/09/10 01:37:49;;;;;;;5.57;3.72;;;15.00;99.90;;;;;;5007590;28;21011;-83
2023/09/10 01:40:21;;;;;;;6.78;4.07;;;14.50;99.90;;;;;;5007679;28;20045;-85
2023/09/10 01:42:49;;;;;;;5.90;3.60;;;14.40;99.90;;;;;;5002365;28;20548;-85
2023/09/10 01:45:15;;;;;;;8.95;4.03;;;14.50;99.90;;;;;;5009501;28;20026;-83
2023/09/10 01:47:41;;;;;;;6.88;3.58;;;;;;;;;;5009980;28;20049;-85
2023/09/10 01:50:07;;;;;;;11.43;3.88;;;14.80;99.90;;;;;;5008418;28;20488;-85
2023/09/10 01:52:33;;;;;;;8.80;3.47;;;;;;;;;;5003263;28;20054;-84
2023/09/10 01:54:59;;;;;;;9.93;3.92;;;;;;;;;;5007291;28;20404;-84
2023/09/10 01:57:25;;;;;;;6.75;3.72;;;;;;;;;;4999711;28;20080;-86
2023/09/10 01:59:51;;;;;;;6.20;3.58;;;;;;;;;;5001576;28;20472;-86
2023/09/10 02:02:18;;;;;;;10.95;4.40;;;;;;;;;;5001994;28;20080;-83
2023/09/10 02:04:44;;;;;;;5.55;3.13;;;;;;;;;;5009122;28;20475;-84
2023/09/10 02:07:10;;;;;;;7.30;3.92;;;;;;;;;;5004617;28;20095;-85
2023/09/10 02:09:36;;;;;;;6.07;3.40;;;;;;;;;;5005307;28;20025;-85
2023/09/10 02:12:02;;;;;;;7.45;3.92;;;;;;;;;;4999717;28;20148;-85
2023/09/10 02:14:28;;;;;;;7.55;3.47;;;;;;;;;;5005735;28;20041;-87
2023/09/10 02:16:53;;;;;;;8.57;4.40;;;;;;;;;;5006846;28;20030;-84
2023/09/10 02:19:19;;;;;;;6.32;3.97;;;;;;;;;;5007915;28;20026;-85
2023/09/10 02:21:45;;;;;;;6.35;3.55;;;;;;;;;;4998164;28;21716;-86
2023/09/10 02:24:11;;;;;;;7.72;3.70;;;;;;;;;;5001935;28;20087;-83
2023/09/10 02:26:37;;;;;;;8.57;4.28;;;13.80;99.90;;;;;;4994555;28;20048;-83
2023/09/10 02:29:03;;;;;;;6.57;3.28;;;14.30;99.90;;;;;;5002504;28;20033;-83
2023/09/10 02:31:28;;;;;;;5.47;3.45;;;13.80;99.90;;;;;;5000128;28;20066;-83
2023/09/10 02:34:00;;;;;;;6.53;3.60;;;;;;;;;;5003894;28;20022;-84
2023/09/10 02:36:26;;;;;;;6.43;3.92;;;;;;;;;;5001520;28;20096;-84
2023/09/10 02:38:52;;;;;;;9.15;3.85;;;;;;;;;;5006184;28;20034;-84
2023/09/10 02:41:18;;;;;;;6.78;3.40;;;;;;;;;;5002996;28;20030;-85
2023/09/10 02:43:44;;;;;;;5.63;3.28;;;;;;;;;;5006880;28;20030;-83
2023/09/10 02:46:10;;;;;;;6.35;3.97;;;;;;;;;;5009938;28;20040;-85
2023/09/10 02:48:36;;;;;;;7.45;3.85;;;;;;;;;;5014100;28;20034;-85
2023/09/10 02:51:02;;;;;;;9.23;3.53;;;;;;;;;;5007125;28;20033;-85
2023/09/10 02:53:28;;;;;;;9.70;3.30;;;;;;;;;;5005426;28;20060;-84
2023/09/10 02:56:03;;;;;;;9.45;3.13;;;13.60;99.90;;;;;;5010440;28;20030;-85
2023/09/10 02:58:29;;;;;;;7.35;3.55;;;13.50;99.90;;;;;;5007488;28;20109;-84
2023/09/10 03:00:55;;;;;;;6.47;3.50;;;13.70;99.90;;;;;;5007351;28;20574;-83
2023/09/10 03:03:21;;;;;;;5.70;3.42;;;;;;;;;;5006927;28;20033;-83
2023/09/10 03:05:47;;;;;;;10.35;3.97;;;13.70;99.90;;;;;;5011818;28;20034;-82
2023/09/10 03:08:13;;;;;;;9.25;3.40;;;;;;;;;;5027314;28;20014;-86
2023/09/10 03:10:38;;;;;;;12.35;3.70;;;14.30;99.90;;;;;;5026263;28;20082;-85
2023/09/10 03:13:04;;;;;;;5.93;3.60;;;;;;;;;;5009360;28;20025;-86
2023/09/10 03:15:30;;;;;;;10.25;4.20;;;;;;;;;;5010557;28;20026;-87
2023/09/10 03:17:56;;;;;;;4.75;3.10;;;;;;;;;;5010240;28;20037;-86
2023/09/10 03:20:22;;;;;;;6.70;3.50;;;;;;;;;;5003728;28;20488;-86
2023/09/10 03:22:50;;;;;;;7.40;4.35;;;;;;;;;;4999217;28;20089;-86
2023/09/10 03:25:16;;;;;;;8.65;4.45;;;;;;;;;;5003387;28;20023;-85
2023/09/10 03:27:42;;;;;;;7.75;3.90;;;;;;;;;;5006356;28;20403;-84
2023/09/10 03:30:08;;;;;;;14.32;4.03;;;;;;;;;;5006726;28;20034;-85
2023/09/10 03:32:34;;;;;;;7.15;3.40;;;;;;;;;;5002013;28;20563;-84
2023/09/10 03:35:00;;;;;;;8.43;3.75;;;;;;;;;;5003610;28;20038;-87
2023/09/10 03:37:26;;;;;;;8.57;3.80;;;;;;;;;;4995531;28;20453;-86
2023/09/10 03:39:52;;;;;;;8.77;3.92;;;;;;;;;;5001180;28;20069;-86
2023/09/10 03:42:18;;;;;;;5.65;4.38;;;;;;;;;;4998091;28;20036;-84
2023/09/10 03:44:44;;;;;;;12.30;3.90;;;;;;;;;;5006553;28;20034;-85
2023/09/10 03:47:09;;;;;;;8.20;3.78;;;;;;;;;;5010210;28;20042;-83
2023/09/10 03:49:35;;;;;;;12.07;3.60;;;;;;;;;;5012028;28;20080;-85
2023/09/10 03:52:14;;;;;;;5.63;3.45;;;13.80;99.90;;;;;;4999697;28;20108;-85
2023/09/10 03:54:40;;;;;;;7.13;4.07;;;;;;;;;;5008262;28;20040;-84
2023/09/10 03:57:06;;;;;;;8.25;3.72;;;;;;;;;;5008606;28;20033;-85
2023/09/10 03:59:32;;;;;;;9.77;4.95;;;;;;;;;;5012272;28;20018;-84
2023/09/10 04:01:59;;;;;;;8.45;4.15;;;;;;;;;;5002077;28;20048;-85
2023/09/10 04:04:25;;;;;;;6.82;4.07;;;;;;;;;;4988227;28;20027;-85
2023/09/10 04:06:51;;;;;;;14.65;3.90;;;;;;;;;;5003806;28;20610;-85
2023/09/10 04:09:17;;;;;;;8.18;4.65;;;;;;;;;;5003116;28;20044;-85
2023/09/10 04:11:43;;;;;;;8.55;3.80;;;;;;;;;;5003672;28;20033;-85
2023/09/10 04:14:08;;;;;;;5.97;3.15;;;13.60;99.90;;;;;;4999677;28;20060;-83
2023/09/10 04:16:34;;;;;;;9.55;3.80;;;;;;;;;;5004161;28;20030;-85
2023/09/10 04:19:00;;;;;;;8.65;3.90;;;;;;;;;;4999558;28;20022;-84
2023/09/10 04:21:26;;;;;;;8.27;4.35;;;;;;;;;;4998692;28;20030;-84
2023/09/10 04:23:52;;;;;;;7.40;4.13;;;;;;;;;;5003886;28;20121;-85
2023/09/10 04:26:18;;;;;;;7.85;4.07;;;;;;;;;;4998622;28;20552;-86
2023/09/10 04:28:44;;;;;;;7.85;4.03;;;;;;;;;;5007444;28;20036;-83
2023/09/10 04:31:13;;;;;;;8.50;4.25;;;13.70;99.90;;;;;;5004129;28;20034;-84
2023/09/10 04:33:39;;;;;;;7.72;3.83;;;;;;;;;;5001618;28;20045;-86
2023/09/10 04:36:05;;;;;;;8.38;3.30;;;;;;;;;;5001171;28;20060;-83
2023/09/10 04:38:31;;;;;;;4.70;2.83;;;;;;;;;;5003487;28;20030;-85
2023/09/10 04:40:57;;;;;;;6.13;3.50;;;;;;;;;;4997459;28;20026;-84
2023/09/10 04:43:23;;;;;;;7.10;4.03;;;;;;;;;;4997098;28;20027;-86
2023/09/10 04:45:48;;;;;;;6.80;3.85;;;13.10;99.90;;;;;;5004951;28;20109;-82
2023/09/10 04:48:14;;;;;;;7.30;4.10;;;14.00;99.90;;;;;;5003189;28;20844;-82
2023/09/10 04:50:40;;;;;;;7.53;3.70;;;;;;;;;;5002994;28;20042;-83
2023/09/10 04:53:06;;;;;;;5.78;3.28;;;;;;;;;;4994834;28;20026;-83
2023/09/10 04:55:32;;;;;;;5.40;3.13;;;14.00;99.90;;;;;;5001143;28;20086;-83
2023/09/10 04:57:58;;;;;;;6.10;3.17;;;;;;;;;;5003562;28;20033;-84
2023/09/10 05:00:24;;;;;;;8.45;3.60;;;;;;;;;;5006966;28;20058;-84
2023/09/10 05:02:50;;;;;;;10.18;4.35;;;;;;;;;;5002021;28;20061;-84
2023/09/10 05:05:16;;;;;;;6.85;3.97;;;;;;;;;;5007244;28;20033;-85
2023/09/10 05:07:42;;;;;;;8.48;3.50;;;;;;;;;;5008976;28;20046;-84
2023/09/10 05:10:09;;;;;;;7.60;4.25;;;13.70;99.90;;;;;;5005245;28;20032;-86
2023/09/10 05:12:35;;;;;;;7.18;3.78;;;;;;;;;;4998958;28;20033;-83
2023/09/10 05:15:01;;;;;;;7.45;4.53;;;;;;;;;;5002035;28;20030;-84
2023/09/10 05:17:27;;;;;;;7.93;4.05;;;;;;;;;;5002293;28;20317;-85
2023/09/10 05:19:53;;;;;;;6.00;3.65;;;;;;;;;;5001160;28;20026;-81
2023/09/10 05:22:19;;;;;;;7.32;3.45;;;;;;;;;;4998545;28;20033;-83
2023/09/10 05:24:45;;;;;;;9.05;3.92;;;;;;;;;;4996948;28;20057;-83
2023/09/10 05:27:11;;;;;;;5.72;3.08;;;13.40;99.90;;;;;;4996943;28;20649;-82
2023/09/10 05:29:37;;;;;;;10.05;3.80;;;;;;;;;;5005290;28;20169;-85
2023/09/10 05:32:03;;;;;;;10.27;4.35;;;14.20;99.90;;;;;;5000958;28;20064;-83
2023/09/10 05:34:28;;;;;;;7.80;4.50;;;;;;;;;;5003014;28;20101;-84
2023/09/10 05:36:54;;;;;;;6.53;3.85;;;13.90;99.90;;;;;;5000800;28;20500;-83
2023/09/10 05:39:20;;;;;;;5.55;3.58;;;;;;;;;;5003145;28;20065;-85
2023/09/10 05:41:46;;;;;;;6.00;3.45;;;;;;;;;;5000872;28;20105;-82
2023/09/10 05:44:12;;;;;;;7.53;4.45;;;;;;;;;;5003059;28;20157;-83
2023/09/10 05:46:38;;;;;;;10.98;4.80;;;;;;;;;;5005851;28;20042;-81
2023/09/10 05:49:04;;;;;;;15.27;4.30;;;;;;;;;;5013008;28;20037;-82
2023/09/10 05:51:30;;;;;;;7.78;4.22;;;;;;;;;;5006168;28;20022;-84
2023/09/10 05:53:56;;;;;;;9.95;5.20;;;;;;;;;;5007897;28;20675;-82
2023/09/10 05:56:22;;;;;;;10.05;5.25;;;;;;;;;;5009439;28;20026;-82
2023/09/10 05:58:48;;;;;;;13.02;4.90;;;;;;;;;;5001772;28;20053;-83
2023/09/10 06:01:14;;;;;;;5.93;3.72;;;;;;;;;;5009451;28;20025;-81
2023/09/10 06:03:40;;;;;;;6.25;3.65;;;;;;;;;;5008398;28;20101;-82
2023/09/10 06:06:06;;;;;;;6.53;3.63;;;;;;;;;;4998633;28;20380;-80
2023/09/10 06:08:32;;;;;;;7.60;3.85;;;;;;;;;;5015895;28;20021;-80
2023/09/10 06:10:58;;;;;;;7.88;4.30;;;;;;;;;;5007109;28;20050;-82
2023/09/10 06:13:24;;;;;;;7.35;3.88;;;;;;;;;;5005461;28;20026;-81
2023/09/10 06:15:50;;;;;;;9.50;4.22;;;;;;;;;;5007662;28;20033;-82
2023/09/10 06:18:16;;;;;;;8.00;4.68;;;;;;;;;;5022670;28;20400;-82
2023/09/10 06:20:42;;;;;;;8.95;4.25;;;;;;;;;;5002409;28;20053;-83
2023/09/10 06:23:08;;;;;;;7.88;4.45;;;;;;;;;;5003797;28;21440;-82
2023/09/10 06:25:34;;;;;;;6.93;4.60;;;;;;;;;;5009311;28;20030;-82
2023/09/10 06:28:00;;;;;;;12.73;5.10;;;;;;;;;;5002777;28;20064;-80
2023/09/10 06:30:26;;;;;;;14.60;4.70;;;;;;;;;;5013563;28;20026;-81
2023/09/10 06:32:52;;;;;;;7.68;4.50;;;;;;;;;;5010013;28;20057;-81
2023/09/10 06:35:18;;;;;;;13.10;4.25;;;;;;;;;;5016999;28;20025;-81
2023/09/10 06:37:44;;;;;;;8.23;4.72;;;;;;;;;;5005709;28;20052;-81
2023/09/10 06:40:11;;;;;;;14.30;4.95;;;17.30;99.90;;;;;;5006182;28;20029;-81
2023/09/10 06:42:36;;;;;;;8.48;3.90;;;17.90;99.90;;;;;;5004756;28;20058;-80
2023/09/10 06:45:02;;;;;;;9.07;4.28;;;;;;;;;;5009458;28;20057;-81
2023/09/10 06:47:28;;;;;;;12.80;4.18;;;;;;;;;;5008712;28;20156;-81
2023/09/10 06:49:54;;;;;;;11.73;4.10;;;;;;;;;;5006653;28;20094;-81
2023/09/10 06:52:20;;;;;;;6.80;3.30;;;;;;;;;;5002758;28;20030;-80
2023/09/10 06:54:46;;;;;;;8.25;3.95;;;;;;;;;;5004213;28;20034;-82
2023/09/10 06:57:13;;;;;;;6.30;4.15;;;;;;;;;;5006900;28;20976;-81
2023/09/10 06:59:39;;;;;;;9.18;4.32;;;;;;;;;;4997788;28;20038;-81
2023/09/10 07:02:04;;;;;;;6.80;4.03;;;17.30;99.90;;;;;;4995549;28;20038;-82
2023/09/10 07:04:30;;;;;;;7.68;3.88;;;;;;;;;;5000054;28;20645;-81
2023/09/10 07:06:56;;;;;;;7.75;4.18;;;;;;;;;;4997970;28;20037;-84
2023/09/10 07:09:23;;;;;;;9.50;4.35;;;17.70;99.90;;;;;;4994311;28;20705;-80
2023/09/10 07:11:52;;;;;;;8.48;4.60;;;17.70;99.90;;;;;;5000416;28;20033;-82
2023/09/10 07:14:19;;;;;;;9.80;5.43;;;;;;;;;;5011650;28;20026;-79
2023/09/10 07:16:46;;;;;;;8.15;4.30;;;17.80;99.90;;;;;;5014219;28;20057;-81
2023/09/10 07:19:12;;;;;;;10.45;4.40;;;;;;;;;;5009280;28;20037;-82
2023/09/10 07:21:38;;;;;;;14.27;4.78;;;;;;;;;;5001997;28;20026;-83
2023/09/10 07:24:06;;;;;;;6.40;3.55;;;;;;;;;;5006915;28;20053;-82
2023/09/10 07:26:36;;;;;;;6.65;4.43;;;18.00;99.90;;;;;;5002858;28;20049;-81
2023/09/10 07:29:06;;;;;;;11.18;4.68;;;18.10;99.90;;;;;;5010361;28;20037;-81
2023/09/10 07:31:33;;;;;;;7.72;4.82;;;18.10;99.90;;;;;;5013930;28;20026;-81
2023/09/10 07:33:59;;;;;;;7.45;3.65;;;;;;;;;;5006292;28;20022;-82
2023/09/10 07:36:25;;;;;;;10.02;4.70;;;;;;;;;;5018843;28;20036;-82
2023/09/10 07:38:50;;;;;;;8.35;4.35;;;18.10;99.90;;;;;;5012625;28;20440;-80
2023/09/10 07:41:17;;;;;;;9.13;5.13;;;;;;;;;;5012438;28;20048;-81
2023/09/10 07:43:42;;;;;;;8.70;4.55;;;19.20;99.90;;;;;;5012619;28;20085;-81
2023/09/10 07:46:08;;;;;;;7.30;3.83;;;;;;;;;;5023598;28;20069;-81
2023/09/10 07:48:35;;;;;;;8.82;4.68;;;;;;;;;;5020777;28;20036;-82
2023/09/10 07:51:02;;;;;;;10.23;4.43;;;19.30;99.90;;;;;;5009392;28;20037;-81
2023/09/10 07:53:28;;;;;;;10.20;3.90;;;;;;;;;;5005824;28;20030;-81
2023/09/10 07:55:54;;;;;;;9.35;4.78;;;;;;;;;;5013829;28;20022;-81
2023/09/10 07:58:20;;;;;;;6.13;3.90;;;;;;;;;;5012023;28;20021;-82
2023/09/10 08:00:46;;;;;;;7.90;3.63;;;19.80;99.90;;;;;;5016338;28;20490;-83
2023/09/10 08:03:14;;;;;;;8.18;4.13;;;;;;;;;;5014274;28;20022;-81
2023/09/10 08:05:40;;;;;;;7.82;3.65;;;;;;;;;;5015876;28;20039;-81
2023/09/10 08:08:06;;;;;;;7.70;4.15;;;;;;;;;;5019698;28;20025;-81
2023/09/10 08:10:33;;;;;;;7.53;3.75;;;20.40;99.90;;;;;;5018346;28;20032;-81
2023/09/10 08:12:59;;;;;;;8.63;3.78;;;21.30;99.90;;;;;;5015728;28;20026;-81
2023/09/10 08:15:25;;;;;;;8.93;4.30;;;;;;;;;;5017287;28;20076;-83
2023/09/10 08:17:54;;;;;;;6.70;3.83;;;22.10;99.90;;;;;;5018794;28;20038;-83
2023/09/10 08:20:20;;;;;;;7.57;4.20;;;;;;;;;;5016844;28;20033;-82
2023/09/10 08:22:46;;;;;;;7.05;3.88;;;;;;;;;;5014964;28;20099;-82
2023/09/10 08:25:13;;;;;;;7.60;3.90;;;;;;;;;;5018193;28;20458;-81
2023/09/10 08:27:39;;;;;;;8.35;4.50;;;;;;;;;;5018958;28;20053;-82
2023/09/10 08:30:07;;;;;;;7.15;3.90;;;23.00;99.90;;;;;;5017988;28;20484;-81
2023/09/10 08:32:33;;;;;;;7.63;4.20;;;22.80;99.90;;;;;;5015478;28;20036;-82
2023/09/10 08:34:59;;;;;;;8.25;4.25;;;22.50;99.90;;;;;;5021578;28;20040;-82
2023/09/10 08:37:24;;;;;;;6.90;4.10;;;22.80;99.90;;;;;;5012326;28;20050;-81
2023/09/10 08:39:50;;;;;;;5.88;3.70;;;;;;;;;;5014525;28;20060;-81
2023/09/10 08:42:45;;;;;;;9.45;3.90;;;23.40;99.90;;;;;;5005356;28;20038;-83
2023/09/10 08:45:11;;;;;;;7.88;4.47;;;25.50;99.90;;;;;;5011513;28;20041;-82
2023/09/10 08:47:39;;;;;;;7.90;3.50;;;27.00;99.90;;;;;;5016508;28;20057;-83
2023/09/10 08:50:14;;;;;;;4.53;2.97;;;29.30;99.90;;;;;;5015151;28;20030;-83
2023/09/10 08:52:43;;;;;;;7.25;3.42;;;30.60;99.90;;;;;;5016579;28;20026;-82
2023/09/10 08:55:11;;;;;;;6.50;2.85;;;;;;;;;;5018407;28;20491;-83
2023/09/10 08:57:37;;;;;;;4.25;2.80;;;;;;;;;;5014662;28;20022;-81
2023/09/10 09:00:12;;;;;;;9.50;2.67;;;34.40;93.00;;;;;;5016381;28;20028;-81
2023/09/10 09:02:40;;;;;;;4.63;2.95;;;35.40;85.60;;;;;;5012978;28;20037;-81
2023/09/10 09:05:06;;;;;;;9.10;3.00;;;35.40;83.00;;;;;;5019583;28;20071;-82
2023/09/10 09:07:57;;;;;;;4.65;2.38;;;36.30;82.20;;;;;;5016262;28;20044;-82
2023/09/10 09:10:25;;;;;;;3.92;2.75;;;35.30;80.80;;;;;;5021266;28;20524;-80
2023/09/10 09:12:59;;;;;;;2.97;2.03;;;33.40;79.20;;;;;;5012987;28;20034;-81
2023/09/10 09:15:28;;;;;;;4.10;2.53;;;31.60;86.10;;;;;;5014975;28;20026;-83
2023/09/10 09:17:57;;;;;;;3.88;2.50;;;30.60;84.90;;;;;;5020132;28;20030;-84
2023/09/10 09:20:24;;;;;;;3.53;2.42;;;;;;;;;;5012198;28;20389;-84
2023/09/10 09:22:54;;;;;;;3.53;2.25;;;28.90;88.50;;;;;;5013182;28;20034;-82
2023/09/10 09:25:20;;;;;;;7.80;2.97;;;;;;;;;;5012771;28;20522;-82
2023/09/10 09:27:48;;;;;;;3.83;2.70;;;28.20;91.80;;;;;;5011689;28;20046;-82
2023/09/10 09:30:14;;;;;;;5.70;2.30;;;;;;;;;;5011295;28;20022;-82
2023/09/10 09:32:40;;;;;;;7.25;2.72;;;;;;;;;;5012094;28;20069;-81
2023/09/10 09:35:09;;;;;;;3.25;1.90;;;27.80;91.00;;;;;;5016162;28;20022;-80
2023/09/10 09:37:36;;;;;;;7.22;2.65;;;28.00;94.00;;;;;;5012769;28;20034;-81
2023/09/10 09:40:03;;;;;;;4.50;2.83;;;27.60;91.60;;;;;;5014113;28;20065;-81
2023/09/10 09:42:30;;;;;;;5.95;2.97;;;27.60;92.10;;;;;;5006721;28;20057;-80
2023/09/10 09:44:57;;;;;;;4.47;2.90;;;;;;;;;;5008467;28;20053;-81
2023/09/10 09:47:23;;;;;;;3.83;2.45;;;27.30;99.90;;;;;;5018567;28;20091;-82
2023/09/10 09:49:49;;;;;;;4.03;2.40;;;;;;;;;;5008744;28;20065;-81
2023/09/10 09:52:21;;;;;;;5.57;2.63;;;27.60;99.90;;;;;;5009494;28;20029;-80
2023/09/10 09:54:49;;;;;;;5.25;2.65;;;27.60;99.60;;;;;;5013822;28;20046;-80
2023/09/10 09:57:16;;;;;;;3.60;2.10;;;28.00;91.70;;;;;;5006790;28;20050;-81
2023/09/10 09:59:43;;;;;;;3.72;2.17;;;;;;;;;;5015618;28;20049;-82
2023/09/10 10:02:15;;;;;;;5.75;2.90;;;27.70;90.80;;;;;;5010354;28;20026;-81
2023/09/10 10:04:43;;;;;;;7.95;2.88;;;28.10;93.50;;;;;;5009778;28;20029;-81
2023/09/10 10:07:09;;;;;;;5.10;2.70;;;27.70;93.00;;;;;;5004419;28;20140;-83
2023/09/10 10:09:37;;;;;;;5.53;2.35;;;27.90;92.50;;;;;;5010201;28;20484;-84
2023/09/10 10:12:04;;;;;;;10.63;2.88;;;27.50;91.40;;;;;;5004034;28;20038;-82
2023/09/10 10:14:32;;;;;;;4.40;2.35;;;27.60;91.60;;;;;;4994563;28;20474;-84
2023/09/10 10:16:58;;;;;;;6.25;3.30;;;;;;;;;;4993485;28;20033;-82
2023/09/10 10:19:24;;;;;;;4.18;2.30;;;;;;;;;;5000229;28;20040;-82
2023/09/10 10:21:53;;;;;;;4.13;2.30;;;27.50;91.60;;;;;;5002329;28;20033;-82
2023/09/10 10:24:19;;;;;;;4.38;2.45;;;28.20;91.00;;;;;;5000573;28;20033;-80
2023/09/10 10:26:47;;;;;;;3.08;1.98;;;27.70;92.50;;;;;;4995605;28;20477;-81
2023/09/10 10:29:13;;;;;;;7.55;2.30;;;;;;;;;;5006191;28;20034;-81
2023/09/10 10:31:41;;;;;;;4.68;2.60;;;28.40;92.40;;;;;;4997932;28;21129;-81
2023/09/10 10:34:18;;;;;;;3.78;2.38;;;28.50;91.00;;;;;;5005294;28;20022;-81
2023/09/10 10:37:15;;;;;;;5.60;2.65;;;28.60;91.20;;;;;;4994941;28;20030;-82
2023/09/10 10:40:05;;;;;;;3.58;2.28;;;28.20;89.00;;;;;;5005644;28;20033;-83
2023/09/10 10:42:53;;;;;;;5.20;2.38;;;28.40;92.30;;;;;;4994243;28;20032;-81
2023/09/10 10:45:19;;;;;;;5.07;2.60;;;28.00;99.90;;;;;;5003579;28;20308;-82
2023/09/10 10:47:47;;;;;;;5.20;2.50;;;27.90;90.80;;;;;;5007205;28;20048;-81
2023/09/10 10:50:18;;;;;;;4.07;2.58;;;28.80;91.50;;;;;;5007744;28;20030;-80
2023/09/10 10:52:57;;;;;;;5.10;2.13;;;28.40;91.10;;;;;;5002094;28;20052;-80
2023/09/10 10:55:24;;;;;;;4.22;2.47;;;27.90;92.30;;;;;;5002753;28;20030;-84
2023/09/10 10:57:50;;;;;;;4.28;2.45;;;;;;;;;;4999435;28;20066;-83
2023/09/10 11:00:17;;;;;;;5.10;2.28;;;;;;;;;;5002217;28;20031;-83
2023/09/10 11:02:43;;;;;;;6.28;2.47;;;;;;;;;;5000770;28;20022;-81
2023/09/10 11:05:09;;;;;;;3.25;2.20;;;;;;;;;;5001995;28;20030;-80
2023/09/10 11:07:35;;;;;;;4.47;2.47;;;28.30;93.80;;;;;;5013734;28;20084;-82
2023/09/10 11:10:29;;;;;;;6.03;2.50;;;29.10;92.10;;;;;;5008369;28;20741;-82
2023/09/10 11:13:04;;;;;;;3.38;2.05;;;29.00;99.90;;;;;;5010274;28;20710;-82
2023/09/10 11:15:30;;;;;;;4.60;2.72;;;;;;;;;;5008102;28;20033;-82
2023/09/10 11:18:36;;;;;;;4.45;2.35;;;29.30;93.90;;;;;;5007495;28;20042;-83
2023/09/10 11:21:03;;;;;;;6.30;2.22;;;28.70;90.80;;;;;;5012563;28;20061;-83
2023/09/10 11:23:29;;;;;;;6.43;3.30;;;;;;;;;;4996748;28;20058;-82
2023/09/10 11:26:15;;;;;;;4.22;3.00;;;28.90;90.00;;;;;;5007329;28;20600;-81
2023/09/10 11:28:46;;;;;;;4.05;2.60;;;29.30;98.20;;;;;;5006716;28;20493;-80
2023/09/10 11:31:40;;;;;;;5.75;2.85;;;28.90;87.90;;;;;;5016868;28;20492;-82
2023/09/10 11:34:18;;;;;;;4.00;2.63;;;;;;;;;;5013675;28;20104;-82
2023/09/10 11:36:45;;;;;;;5.25;3.05;;;28.80;90.00;;;;;;5014357;28;20017;-80
2023/09/10 11:39:15;;;;;;;3.78;2.72;;;;;;;;;;5016283;28;20021;-80
2023/09/10 11:41:45;;;;;;;6.70;2.35;;;28.60;89.00;;;;;;5009435;28;20029;-79
2023/09/10 11:44:11;;;;;;;4.07;1.88;;;;;;;;;;5002469;28;20046;-81
2023/09/10 11:46:38;;;;;;;4.70;2.65;;;29.00;88.20;;;;;;4999618;28;20042;-80
2023/09/10 11:49:04;;;;;;;3.08;2.40;;;;;;;;;;5003017;28;20038;-80
2023/09/10 11:51:30;;;;;;;4.82;2.95;;;;;;;;;;5003383;28;20080;-80
2023/09/10 11:53:59;;;;;;;4.45;2.50;;;29.40;86.50;;;;;;4999249;28;20488;-82
2023/09/10 11:56:26;;;;;;;5.00;2.33;;;29.00;90.80;;;;;;4996462;28;20060;-81
2023/09/10 11:58:53;;;;;;;4.20;2.50;;;29.40;97.10;;;;;;4998965;28;21376;-82
2023/09/10 12:01:21;;;;;;;4.25;2.30;;;28.90;91.30;;;;;;5002340;28;20041;-82
2023/09/10 12:03:47;;;;;;;6.72;2.75;;;;;;;;;;4999552;28;20084;-80
2023/09/10 12:06:13;;;;;;;3.83;2.30;;;;;;;;;;5001261;28;20034;-81
2023/09/10 12:08:40;;;;;;;3.88;2.13;;;;;;;;;;4997251;28;20038;-80
2023/09/10 12:11:08;;;;;;;4.53;2.38;;;29.50;93.40;;;;;;5000883;28;20156;-81
2023/09/10 12:13:36;;;;;;;6.47;2.20;;;29.60;88.30;;;;;;4997850;28;20022;-81
2023/09/10 12:16:03;;;;;;;3.47;2.03;;;29.80;90.10;;;;;;5001617;28;20052;-81
2023/09/10 12:18:29;;;;;;;3.42;1.80;;;28.80;88.10;;;;;;4999710;28;20033;-81
2023/09/10 12:20:57;;;;;;;6.10;2.22;;;29.20;94.20;;;;;;4999816;28;20042;-81
2023/09/10 12:23:23;;;;;;;3.97;2.00;;;;;;;;;;5001440;28;20543;-83
2023/09/10 12:25:56;;;;;;;4.43;2.38;;;29.00;84.30;;;;;;5005813;28;20030;-81
2023/09/10 12:28:23;;;;;;;3.58;2.22;;;;;;;;;;5008801;28;20053;-80
2023/09/10 12:30:49;;;;;;;4.00;2.28;;;29.40;87.30;;;;;;5009819;28;20053;-82
2023/09/10 12:33:16;;;;;;;4.85;2.78;;;;;;;;;;5006637;28;20591;-82
2023/09/10 12:35:42;;;;;;;3.28;1.98;;;;;;;;;;5010562;28;20022;-80
2023/09/10 12:38:08;;;;;;;4.93;2.63;;;;;;;;;;5004386;28;20117;-82
2023/09/10 12:40:37;;;;;;;3.08;2.00;;;;;;;;;;4998237;28;20221;-84
2023/09/10 12:43:03;;;;;;;4.47;2.22;;;;;;;;;;5003971;28;20014;-84
2023/09/10 12:45:29;;;;;;;5.32;2.08;;;;;;;;;;4999619;28;20036;-82
2023/09/10 12:47:55;;;;;;;2.60;1.77;;;;;;;;;;5002282;28;20088;-84
2023/09/10 12:50:22;;;;;;;5.03;2.40;;;;;;;;;;5002752;28;20026;-83
2023/09/10 12:52:49;;;;;;;4.72;2.17;;;;;;;;;;4990355;28;20033;-84
2023/09/10 12:55:19;;;;;;;4.53;2.70;;;29.50;87.30;;;;;;4995433;28;20618;-83
2023/09/10 12:57:54;;;;;;;4.35;2.30;;;29.50;92.10;;;;;;4998740;28;20046;-83
2023/09/10 13:00:21;;;;;;;4.95;2.05;;;;;;;;;;4997398;28;20018;-83
2023/09/10 13:02:47;;;;;;;3.90;2.28;;;29.30;89.60;;;;;;4994540;28;20117;-83
2023/09/10 13:05:15;;;;;;;4.10;2.47;;;;;;;;;;4996580;28;20041;-82
2023/09/10 13:07:41;;;;;;;5.43;2.40;;;;;;;;;;5005635;28;20030;-81
2023/09/10 13:10:11;;;;;;;3.63;2.10;;;28.80;84.30;;;;;;4987992;28;20029;-82
2023/09/10 13:12:37;;;;;;;4.30;2.17;;;;;;;;;;4992432;28;20123;-81
2023/09/10 13:15:03;;;;;;;7.68;2.25;;;;;;;;;;4997064;28;20026;-82
2023/09/10 13:17:30;;;;;;;4.97;3.17;;;;;;;;;;4999102;28;20026;-82
2023/09/10 13:19:56;;;;;;;4.20;2.20;;;;;;;;;;4995672;28;20018;-82
2023/09/10 13:22:22;;;;;;;3.70;2.30;;;;;;;;;;4990045;28;20030;-83
2023/09/10 13:24:48;;;;;;;5.07;2.40;;;;;;;;;;4992907;28;20503;-82
2023/09/10 13:27:14;;;;;;;4.82;2.40;;;;;;;;;;5004257;28;20030;-83
2023/09/10 13:29:42;;;;;;;4.80;2.00;;;;;;;;;;5003961;28;20026;-82
2023/09/10 13:32:08;;;;;;;3.47;1.88;;;;;;;;;;5001648;28;20041;-81
2023/09/10 13:34:34;;;;;;;4.97;2.00;;;;;;;;;;4994304;28;20512;-82
2023/09/10 13:37:03;;;;;;;5.93;2.55;;;;;;;;;;4999870;28;20117;-83
2023/09/10 13:39:30;;;;;;;4.50;2.47;;;28.60;85.50;;;;;;4998772;28;20030;-83
2023/09/10 13:41:58;;;;;;;4.05;2.10;;;28.50;85.80;;;;;;5004949;28;20034;-83
2023/09/10 13:44:24;;;;;;;4.70;2.13;;;;;;;;;;4998729;28;20333;-83
2023/09/10 13:46:50;;;;;;;5.78;2.15;;;;;;;;;;5007384;28;20502;-83
2023/09/10 13:49:16;;;;;;;4.40;2.20;;;;;;;;;;4995601;28;20113;-83
2023/09/10 13:51:43;;;;;;;3.72;2.17;;;;;;;;;;4998914;28;20045;-83
2023/09/10 13:54:09;;;;;;;4.20;2.42;;;;;;;;;;4994847;28;20106;-82
2023/09/10 13:56:35;;;;;;;4.97;2.55;;;;;;;;;;4998227;28;20022;-83